sensor_id;sensor_type;location;lat;lon;timestamp;P1;durP1;ratioP1;P2;durP2;ratioP2
25731;SDS011;13585;50.864;4.406;2023-03-11T00:01:21;2.28;;;1.13;;
25731;SDS011;13585;50.864;4.406;2023-03-11T00:04:06;2.65;;;1.30;;
25731;SDS011;13585;50.864;4.406;2023-03-11T00:09:16;3.70;;;1.50;;
25731;SDS011;13585;50.864;4.406;2023-03-11T00:11:42;3.55;;;1.33;;
25731;SDS011;13585;50.864;4.406;2023-03-11T00:14:18;1.70;;;1.17;;
25731;SDS011;13585;50.864;4.406;2023-03-11T00:16:46;4.10;;;1.33;;
25731;SDS011;13585;50.864;4.406;2023-03-11T00:19:12;2.15;;;1.10;;
25731;SDS011;13585;50.864;4.406;2023-03-11T00:21:38;3.53;;;1.13;;
25731;SDS011;13585;50.864;4.406;2023-03-11T00:24:04;2.55;;;1.27;;
25731;SDS011;13585;50.864;4.406;2023-03-11T00:26:30;2.85;;;1.48;;
25731;SDS011;13585;50.864;4.406;2023-03-11T00:28:55;4.18;;;1.30;;
25731;SDS011;13585;50.864;4.406;2023-03-11T00:31:21;2.95;;;1.20;;
25731;SDS011;13585;50.864;4.406;2023-03-11T00:33:47;2.95;;;1.13;;
25731;SDS011;13585;50.864;4.406;2023-03-11T00:36:31;2.47;;;1.35;;
25731;SDS011;13585;50.864;4.406;2023-03-11T00:38:58;2.92;;;1.20;;
25731;SDS011;13585;50.864;4.406;2023-03-11T00:41:26;2.38;;;0.90;;
25731;SDS011;13585;50.864;4.406;2023-03-11T00:43:52;3.40;;;1.38;;
25731;SDS011;13585;50.864;4.406;2023-03-11T00:46:18;2.97;;;1.35;;
25731;SDS011;13585;50.864;4.406;2023-03-11T00:48:43;2.03;;;1.05;;
25731;SDS011;13585;50.864;4.406;2023-03-11T00:51:13;2.50;;;1.10;;
25731;SDS011;13585;50.864;4.406;2023-03-11T00:53:39;2.17;;;1.20;;
25731;SDS011;13585;50.864;4.406;2023-03-11T00:56:06;2.15;;;1.08;;
25731;SDS011;13585;50.864;4.406;2023-03-11T00:58:35;2.28;;;1.20;;
25731;SDS011;13585;50.864;4.406;2023-03-11T01:01:08;2.25;;;1.20;;
25731;SDS011;13585;50.864;4.406;2023-03-11T01:03:35;2.28;;;1.13;;
25731;SDS011;13585;50.864;4.406;2023-03-11T01:06:01;2.20;;;1.10;;
25731;SDS011;13585;50.864;4.406;2023-03-11T01:08:27;2.60;;;1.02;;
25731;SDS011;13585;50.864;4.406;2023-03-11T01:10:55;2.55;;;1.02;;
25731;SDS011;13585;50.864;4.406;2023-03-11T01:13:21;2.78;;;0.93;;
25731;SDS011;13585;50.864;4.406;2023-03-11T01:15:47;1.75;;;0.98;;
25731;SDS011;13585;50.864;4.406;2023-03-11T01:18:12;2.45;;;1.00;;
25731;SDS011;13585;50.864;4.406;2023-03-11T01:20:38;2.85;;;0.90;;
25731;SDS011;13585;50.864;4.406;2023-03-11T01:23:04;2.45;;;1.27;;
25731;SDS011;13585;50.864;4.406;2023-03-11T01:25:31;2.00;;;0.95;;
25731;SDS011;13585;50.864;4.406;2023-03-11T01:27:57;3.17;;;1.23;;
25731;SDS011;13585;50.864;4.406;2023-03-11T01:30:23;4.75;;;1.35;;
25731;SDS011;13585;50.864;4.406;2023-03-11T01:32:50;3.13;;;1.15;;
25731;SDS011;13585;50.864;4.406;2023-03-11T01:35:18;3.28;;;1.10;;
25731;SDS011;13585;50.864;4.406;2023-03-11T01:37:45;1.95;;;1.13;;
25731;SDS011;13585;50.864;4.406;2023-03-11T01:40:16;2.25;;;1.20;;
25731;SDS011;13585;50.864;4.406;2023-03-11T01:42:46;2.60;;;1.17;;
25731;SDS011;13585;50.864;4.406;2023-03-11T01:45:37;2.83;;;1.40;;
25731;SDS011;13585;50.864;4.406;2023-03-11T01:48:06;1.45;;;1.00;;
25731;SDS011;13585;50.864;4.406;2023-03-11T01:50:33;3.45;;;1.05;;
25731;SDS011;13585;50.864;4.406;2023-03-11T01:53:02;2.03;;;1.20;;
25731;SDS011;13585;50.864;4.406;2023-03-11T01:55:29;1.60;;;1.00;;
25731;SDS011;13585;50.864;4.406;2023-03-11T01:57:55;2.15;;;1.10;;
25731;SDS011;13585;50.864;4.406;2023-03-11T02:00:22;1.30;;;0.88;;
25731;SDS011;13585;50.864;4.406;2023-03-11T02:02:51;2.22;;;1.15;;
25731;SDS011;13585;50.864;4.406;2023-03-11T02:05:18;2.47;;;1.00;;
25731;SDS011;13585;50.864;4.406;2023-03-11T02:07:46;2.08;;;0.90;;
25731;SDS011;13585;50.864;4.406;2023-03-11T02:10:13;3.83;;;1.00;;
25731;SDS011;13585;50.864;4.406;2023-03-11T02:12:38;2.50;;;1.35;;
25731;SDS011;13585;50.864;4.406;2023-03-11T02:15:05;2.30;;;1.15;;
25731;SDS011;13585;50.864;4.406;2023-03-11T02:17:32;2.35;;;1.20;;
25731;SDS011;13585;50.864;4.406;2023-03-11T02:22:26;2.00;;;1.10;;
25731;SDS011;13585;50.864;4.406;2023-03-11T02:24:59;3.55;;;1.05;;
25731;SDS011;13585;50.864;4.406;2023-03-11T02:27:47;2.70;;;1.17;;
25731;SDS011;13585;50.864;4.406;2023-03-11T02:30:16;1.83;;;1.00;;
25731;SDS011;13585;50.864;4.406;2023-03-11T02:32:43;2.85;;;1.20;;
25731;SDS011;13585;50.864;4.406;2023-03-11T02:35:12;2.10;;;1.10;;
25731;SDS011;13585;50.864;4.406;2023-03-11T02:37:42;2.95;;;1.05;;
25731;SDS011;13585;50.864;4.406;2023-03-11T02:40:32;1.63;;;1.02;;
25731;SDS011;13585;50.864;4.406;2023-03-11T02:42:59;2.45;;;1.15;;
25731;SDS011;13585;50.864;4.406;2023-03-11T02:45:37;1.50;;;1.10;;
25731;SDS011;13585;50.864;4.406;2023-03-11T02:48:04;2.72;;;1.17;;
25731;SDS011;13585;50.864;4.406;2023-03-11T02:50:32;1.52;;;0.95;;
25731;SDS011;13585;50.864;4.406;2023-03-11T02:53:01;2.45;;;1.13;;
25731;SDS011;13585;50.864;4.406;2023-03-11T02:55:28;1.80;;;1.02;;
25731;SDS011;13585;50.864;4.406;2023-03-11T02:57:54;1.73;;;1.05;;
25731;SDS011;13585;50.864;4.406;2023-03-11T03:00:19;2.60;;;1.20;;
25731;SDS011;13585;50.864;4.406;2023-03-11T03:02:45;2.63;;;1.20;;
25731;SDS011;13585;50.864;4.406;2023-03-11T03:05:15;2.00;;;1.13;;
25731;SDS011;13585;50.864;4.406;2023-03-11T03:07:41;1.83;;;1.05;;
25731;SDS011;13585;50.864;4.406;2023-03-11T03:10:07;2.08;;;0.85;;
25731;SDS011;13585;50.864;4.406;2023-03-11T03:12:33;2.42;;;0.95;;
25731;SDS011;13585;50.864;4.406;2023-03-11T03:14:59;2.05;;;1.10;;
25731;SDS011;13585;50.864;4.406;2023-03-11T03:17:25;2.70;;;1.00;;
25731;SDS011;13585;50.864;4.406;2023-03-11T03:19:50;3.90;;;1.50;;
25731;SDS011;13585;50.864;4.406;2023-03-11T03:22:16;3.40;;;1.10;;
25731;SDS011;13585;50.864;4.406;2023-03-11T03:24:42;2.45;;;1.20;;
25731;SDS011;13585;50.864;4.406;2023-03-11T03:27:07;2.78;;;1.10;;
25731;SDS011;13585;50.864;4.406;2023-03-11T03:29:33;2.30;;;1.35;;
25731;SDS011;13585;50.864;4.406;2023-03-11T03:31:58;3.80;;;1.25;;
25731;SDS011;13585;50.864;4.406;2023-03-11T03:34:24;4.18;;;1.38;;
25731;SDS011;13585;50.864;4.406;2023-03-11T03:36:50;3.28;;;1.02;;
25731;SDS011;13585;50.864;4.406;2023-03-11T03:39:15;1.60;;;1.00;;
25731;SDS011;13585;50.864;4.406;2023-03-11T03:41:43;2.65;;;1.15;;
25731;SDS011;13585;50.864;4.406;2023-03-11T03:44:09;1.13;;;0.93;;
25731;SDS011;13585;50.864;4.406;2023-03-11T03:46:35;2.38;;;1.00;;
25731;SDS011;13585;50.864;4.406;2023-03-11T03:49:02;2.25;;;0.95;;
25731;SDS011;13585;50.864;4.406;2023-03-11T03:51:28;3.15;;;1.30;;
25731;SDS011;13585;50.864;4.406;2023-03-11T03:53:54;2.25;;;1.30;;
25731;SDS011;13585;50.864;4.406;2023-03-11T03:56:19;3.33;;;1.33;;
25731;SDS011;13585;50.864;4.406;2023-03-11T03:58:45;2.70;;;1.33;;
25731;SDS011;13585;50.864;4.406;2023-03-11T04:01:11;1.63;;;0.98;;
25731;SDS011;13585;50.864;4.406;2023-03-11T04:03:37;3.58;;;1.50;;
25731;SDS011;13585;50.864;4.406;2023-03-11T04:08:33;2.15;;;0.93;;
25731;SDS011;13585;50.864;4.406;2023-03-11T04:10:58;1.65;;;1.10;;
25731;SDS011;13585;50.864;4.406;2023-03-11T04:13:24;1.70;;;1.13;;
25731;SDS011;13585;50.864;4.406;2023-03-11T04:15:50;2.13;;;1.00;;
25731;SDS011;13585;50.864;4.406;2023-03-11T04:18:15;1.60;;;1.05;;
25731;SDS011;13585;50.864;4.406;2023-03-11T04:20:41;2.53;;;1.10;;
25731;SDS011;13585;50.864;4.406;2023-03-11T04:23:06;2.35;;;1.02;;
25731;SDS011;13585;50.864;4.406;2023-03-11T04:25:32;1.25;;;0.90;;
25731;SDS011;13585;50.864;4.406;2023-03-11T04:27:58;2.05;;;1.00;;
25731;SDS011;13585;50.864;4.406;2023-03-11T04:30:24;2.33;;;1.10;;
25731;SDS011;13585;50.864;4.406;2023-03-11T04:32:49;1.77;;;1.05;;
25731;SDS011;13585;50.864;4.406;2023-03-11T04:35:15;1.63;;;0.93;;
25731;SDS011;13585;50.864;4.406;2023-03-11T04:37:40;2.50;;;1.00;;
25731;SDS011;13585;50.864;4.406;2023-03-11T04:40:06;2.08;;;1.00;;
25731;SDS011;13585;50.864;4.406;2023-03-11T04:42:35;3.28;;;1.33;;
25731;SDS011;13585;50.864;4.406;2023-03-11T04:45:00;2.47;;;0.82;;
25731;SDS011;13585;50.864;4.406;2023-03-11T04:47:26;2.88;;;1.08;;
25731;SDS011;13585;50.864;4.406;2023-03-11T04:49:52;2.67;;;1.20;;
25731;SDS011;13585;50.864;4.406;2023-03-11T04:52:20;2.90;;;1.17;;
25731;SDS011;13585;50.864;4.406;2023-03-11T04:54:45;1.40;;;0.90;;
25731;SDS011;13585;50.864;4.406;2023-03-11T04:57:11;2.47;;;0.95;;
25731;SDS011;13585;50.864;4.406;2023-03-11T04:59:37;2.33;;;0.90;;
25731;SDS011;13585;50.864;4.406;2023-03-11T05:02:03;1.65;;;1.00;;
25731;SDS011;13585;50.864;4.406;2023-03-11T05:04:28;2.88;;;1.20;;
25731;SDS011;13585;50.864;4.406;2023-03-11T05:06:54;2.67;;;1.08;;
25731;SDS011;13585;50.864;4.406;2023-03-11T05:09:20;2.08;;;1.00;;
25731;SDS011;13585;50.864;4.406;2023-03-11T05:11:45;1.40;;;0.80;;
25731;SDS011;13585;50.864;4.406;2023-03-11T05:14:11;2.53;;;1.10;;
25731;SDS011;13585;50.864;4.406;2023-03-11T05:16:36;1.33;;;0.90;;
25731;SDS011;13585;50.864;4.406;2023-03-11T05:19:02;2.72;;;1.13;;
25731;SDS011;13585;50.864;4.406;2023-03-11T05:21:48;1.27;;;0.90;;
25731;SDS011;13585;50.864;4.406;2023-03-11T05:24:13;2.08;;;1.08;;
25731;SDS011;13585;50.864;4.406;2023-03-11T05:26:39;2.58;;;1.00;;
25731;SDS011;13585;50.864;4.406;2023-03-11T05:29:05;2.58;;;1.10;;
25731;SDS011;13585;50.864;4.406;2023-03-11T05:31:31;2.10;;;1.10;;
25731;SDS011;13585;50.864;4.406;2023-03-11T05:33:56;1.88;;;1.10;;
25731;SDS011;13585;50.864;4.406;2023-03-11T05:36:22;2.13;;;1.08;;
25731;SDS011;13585;50.864;4.406;2023-03-11T05:38:48;2.05;;;1.10;;
25731;SDS011;13585;50.864;4.406;2023-03-11T05:41:13;2.33;;;1.02;;
25731;SDS011;13585;50.864;4.406;2023-03-11T05:43:39;1.65;;;1.00;;
25731;SDS011;13585;50.864;4.406;2023-03-11T05:46:05;1.83;;;0.90;;
25731;SDS011;13585;50.864;4.406;2023-03-11T05:48:31;1.92;;;1.10;;
25731;SDS011;13585;50.864;4.406;2023-03-11T05:50:56;2.33;;;1.10;;
25731;SDS011;13585;50.864;4.406;2023-03-11T05:53:23;3.33;;;1.10;;
25731;SDS011;13585;50.864;4.406;2023-03-11T05:55:58;2.50;;;1.20;;
25731;SDS011;13585;50.864;4.406;2023-03-11T05:58:24;2.50;;;1.15;;
25731;SDS011;13585;50.864;4.406;2023-03-11T06:00:51;1.83;;;0.90;;
25731;SDS011;13585;50.864;4.406;2023-03-11T06:03:17;1.92;;;1.10;;
25731;SDS011;13585;50.864;4.406;2023-03-11T06:05:43;1.45;;;1.00;;
25731;SDS011;13585;50.864;4.406;2023-03-11T06:08:09;3.20;;;1.10;;
25731;SDS011;13585;50.864;4.406;2023-03-11T06:10:35;1.40;;;1.00;;
25731;SDS011;13585;50.864;4.406;2023-03-11T06:13:01;2.53;;;1.13;;
25731;SDS011;13585;50.864;4.406;2023-03-11T06:15:26;2.83;;;1.30;;
25731;SDS011;13585;50.864;4.406;2023-03-11T06:17:52;2.95;;;1.13;;
25731;SDS011;13585;50.864;4.406;2023-03-11T06:20:17;2.15;;;1.08;;
25731;SDS011;13585;50.864;4.406;2023-03-11T06:22:43;2.25;;;1.10;;
25731;SDS011;13585;50.864;4.406;2023-03-11T06:25:09;2.33;;;1.17;;
25731;SDS011;13585;50.864;4.406;2023-03-11T06:27:34;1.42;;;0.98;;
25731;SDS011;13585;50.864;4.406;2023-03-11T06:30:00;3.25;;;1.10;;
25731;SDS011;13585;50.864;4.406;2023-03-11T06:32:26;1.50;;;1.10;;
25731;SDS011;13585;50.864;4.406;2023-03-11T06:34:53;3.47;;;1.20;;
25731;SDS011;13585;50.864;4.406;2023-03-11T06:37:19;2.50;;;1.10;;
25731;SDS011;13585;50.864;4.406;2023-03-11T06:39:45;3.70;;;1.10;;
25731;SDS011;13585;50.864;4.406;2023-03-11T06:42:11;2.92;;;1.20;;
25731;SDS011;13585;50.864;4.406;2023-03-11T06:44:37;2.13;;;1.30;;
25731;SDS011;13585;50.864;4.406;2023-03-11T06:47:03;2.65;;;1.25;;
25731;SDS011;13585;50.864;4.406;2023-03-11T06:49:28;1.30;;;0.95;;
25731;SDS011;13585;50.864;4.406;2023-03-11T06:51:54;2.53;;;1.10;;
25731;SDS011;13585;50.864;4.406;2023-03-11T06:54:19;1.50;;;1.02;;
25731;SDS011;13585;50.864;4.406;2023-03-11T06:56:45;1.40;;;0.75;;
25731;SDS011;13585;50.864;4.406;2023-03-11T06:59:12;1.73;;;1.00;;
25731;SDS011;13585;50.864;4.406;2023-03-11T07:01:39;2.38;;;1.13;;
25731;SDS011;13585;50.864;4.406;2023-03-11T07:04:04;1.55;;;0.90;;
25731;SDS011;13585;50.864;4.406;2023-03-11T07:06:30;1.13;;;0.93;;
25731;SDS011;13585;50.864;4.406;2023-03-11T07:08:56;1.73;;;0.90;;
25731;SDS011;13585;50.864;4.406;2023-03-11T07:11:22;2.72;;;1.15;;
25731;SDS011;13585;50.864;4.406;2023-03-11T07:13:50;3.75;;;1.13;;
25731;SDS011;13585;50.864;4.406;2023-03-11T07:16:18;2.33;;;1.10;;
25731;SDS011;13585;50.864;4.406;2023-03-11T07:18:45;2.03;;;1.20;;
25731;SDS011;13585;50.864;4.406;2023-03-11T07:21:13;1.90;;;1.10;;
25731;SDS011;13585;50.864;4.406;2023-03-11T07:23:40;1.40;;;1.00;;
25731;SDS011;13585;50.864;4.406;2023-03-11T07:26:10;1.33;;;0.90;;
25731;SDS011;13585;50.864;4.406;2023-03-11T07:28:37;2.25;;;1.10;;
25731;SDS011;13585;50.864;4.406;2023-03-11T07:31:07;3.05;;;1.10;;
25731;SDS011;13585;50.864;4.406;2023-03-11T07:33:33;2.85;;;1.10;;
25731;SDS011;13585;50.864;4.406;2023-03-11T07:36:04;2.25;;;0.90;;
25731;SDS011;13585;50.864;4.406;2023-03-11T07:38:34;2.20;;;0.90;;
25731;SDS011;13585;50.864;4.406;2023-03-11T07:40:59;1.48;;;1.08;;
25731;SDS011;13585;50.864;4.406;2023-03-11T07:43:25;1.67;;;0.98;;
25731;SDS011;13585;50.864;4.406;2023-03-11T07:45:51;2.17;;;0.90;;
25731;SDS011;13585;50.864;4.406;2023-03-11T07:48:16;1.70;;;0.80;;
25731;SDS011;13585;50.864;4.406;2023-03-11T07:50:42;1.85;;;1.10;;
25731;SDS011;13585;50.864;4.406;2023-03-11T07:53:08;1.25;;;0.80;;
25731;SDS011;13585;50.864;4.406;2023-03-11T07:55:33;2.50;;;1.10;;
25731;SDS011;13585;50.864;4.406;2023-03-11T07:57:59;2.65;;;0.90;;
25731;SDS011;13585;50.864;4.406;2023-03-11T08:00:24;1.92;;;0.77;;
25731;SDS011;13585;50.864;4.406;2023-03-11T08:02:50;2.08;;;0.98;;
25731;SDS011;13585;50.864;4.406;2023-03-11T08:05:16;1.27;;;0.80;;
25731;SDS011;13585;50.864;4.406;2023-03-11T08:07:44;2.83;;;1.05;;
25731;SDS011;13585;50.864;4.406;2023-03-11T08:10:10;2.80;;;1.00;;
25731;SDS011;13585;50.864;4.406;2023-03-11T08:12:36;1.45;;;0.80;;
25731;SDS011;13585;50.864;4.406;2023-03-11T08:15:02;1.50;;;0.88;;
25731;SDS011;13585;50.864;4.406;2023-03-11T08:17:28;2.63;;;1.02;;
25731;SDS011;13585;50.864;4.406;2023-03-11T08:19:54;2.10;;;0.93;;
25731;SDS011;13585;50.864;4.406;2023-03-11T08:22:19;1.77;;;0.90;;
25731;SDS011;13585;50.864;4.406;2023-03-11T08:24:48;1.20;;;0.88;;
25731;SDS011;13585;50.864;4.406;2023-03-11T08:27:15;3.83;;;1.00;;
25731;SDS011;13585;50.864;4.406;2023-03-11T08:29:40;1.08;;;0.80;;
25731;SDS011;13585;50.864;4.406;2023-03-11T08:32:06;1.77;;;0.90;;
25731;SDS011;13585;50.864;4.406;2023-03-11T08:34:31;1.58;;;0.93;;
25731;SDS011;13585;50.864;4.406;2023-03-11T08:36:59;1.73;;;1.00;;
25731;SDS011;13585;50.864;4.406;2023-03-11T08:39:30;1.50;;;0.95;;
25731;SDS011;13585;50.864;4.406;2023-03-11T08:41:56;2.70;;;1.00;;
25731;SDS011;13585;50.864;4.406;2023-03-11T08:44:23;2.00;;;0.85;;
25731;SDS011;13585;50.864;4.406;2023-03-11T08:46:49;2.35;;;0.90;;
25731;SDS011;13585;50.864;4.406;2023-03-11T08:49:14;3.15;;;1.08;;
25731;SDS011;13585;50.864;4.406;2023-03-11T08:51:40;2.35;;;0.88;;
25731;SDS011;13585;50.864;4.406;2023-03-11T08:54:06;1.77;;;0.98;;
25731;SDS011;13585;50.864;4.406;2023-03-11T08:56:32;2.50;;;1.08;;
25731;SDS011;13585;50.864;4.406;2023-03-11T08:58:58;1.20;;;0.70;;
25731;SDS011;13585;50.864;4.406;2023-03-11T09:01:24;3.22;;;1.15;;
25731;SDS011;13585;50.864;4.406;2023-03-11T09:03:49;1.60;;;0.98;;
25731;SDS011;13585;50.864;4.406;2023-03-11T09:06:16;1.95;;;0.90;;
25731;SDS011;13585;50.864;4.406;2023-03-11T09:08:43;4.07;;;1.10;;
25731;SDS011;13585;50.864;4.406;2023-03-11T09:11:09;1.70;;;1.00;;
25731;SDS011;13585;50.864;4.406;2023-03-11T09:13:37;3.10;;;1.20;;
25731;SDS011;13585;50.864;4.406;2023-03-11T09:16:05;1.55;;;0.93;;
25731;SDS011;13585;50.864;4.406;2023-03-11T09:18:31;4.15;;;1.17;;
25731;SDS011;13585;50.864;4.406;2023-03-11T09:20:58;2.25;;;1.08;;
25731;SDS011;13585;50.864;4.406;2023-03-11T09:23:24;2.53;;;1.20;;
25731;SDS011;13585;50.864;4.406;2023-03-11T09:25:50;2.38;;;1.00;;
25731;SDS011;13585;50.864;4.406;2023-03-11T09:28:16;3.03;;;1.08;;
25731;SDS011;13585;50.864;4.406;2023-03-11T09:30:41;1.60;;;0.90;;
25731;SDS011;13585;50.864;4.406;2023-03-11T09:33:07;1.83;;;0.90;;
25731;SDS011;13585;50.864;4.406;2023-03-11T09:35:33;2.05;;;0.93;;
25731;SDS011;13585;50.864;4.406;2023-03-11T09:37:58;2.42;;;0.98;;
25731;SDS011;13585;50.864;4.406;2023-03-11T09:40:25;2.97;;;1.10;;
25731;SDS011;13585;50.864;4.406;2023-03-11T09:45:49;1.67;;;1.00;;
25731;SDS011;13585;50.864;4.406;2023-03-11T09:48:33;2.42;;;0.98;;
25731;SDS011;13585;50.864;4.406;2023-03-11T09:51:21;2.10;;;1.08;;
25731;SDS011;13585;50.864;4.406;2023-03-11T09:54:02;3.35;;;1.00;;
25731;SDS011;13585;50.864;4.406;2023-03-11T09:56:29;1.27;;;0.85;;
25731;SDS011;13585;50.864;4.406;2023-03-11T09:58:59;2.05;;;1.10;;
25731;SDS011;13585;50.864;4.406;2023-03-11T10:01:33;1.95;;;1.10;;
25731;SDS011;13585;50.864;4.406;2023-03-11T10:04:11;2.45;;;0.93;;
25731;SDS011;13585;50.864;4.406;2023-03-11T10:06:55;2.55;;;1.30;;
25731;SDS011;13585;50.864;4.406;2023-03-11T10:12:01;3.42;;;1.00;;
25731;SDS011;13585;50.864;4.406;2023-03-11T10:17:50;2.35;;;0.98;;
25731;SDS011;13585;50.864;4.406;2023-03-11T10:23:21;2.33;;;1.00;;
25731;SDS011;13585;50.864;4.406;2023-03-11T10:26:13;2.08;;;0.98;;
25731;SDS011;13585;50.864;4.406;2023-03-11T10:28:57;2.10;;;1.05;;
25731;SDS011;13585;50.864;4.406;2023-03-11T10:31:26;1.50;;;0.65;;
25731;SDS011;13585;50.864;4.406;2023-03-11T10:33:59;2.42;;;1.08;;
25731;SDS011;13585;50.864;4.406;2023-03-11T10:36:31;2.35;;;0.90;;
25731;SDS011;13585;50.864;4.406;2023-03-11T10:39:02;2.97;;;1.10;;
25731;SDS011;13585;50.864;4.406;2023-03-11T10:41:31;1.67;;;0.90;;
25731;SDS011;13585;50.864;4.406;2023-03-11T10:44:19;1.75;;;0.90;;
25731;SDS011;13585;50.864;4.406;2023-03-11T10:46:50;3.88;;;0.85;;
25731;SDS011;13585;50.864;4.406;2023-03-11T10:49:16;2.95;;;1.13;;
25731;SDS011;13585;50.864;4.406;2023-03-11T10:51:49;2.13;;;1.02;;
25731;SDS011;13585;50.864;4.406;2023-03-11T10:54:21;1.58;;;0.80;;
25731;SDS011;13585;50.864;4.406;2023-03-11T10:56:55;1.88;;;0.77;;
25731;SDS011;13585;50.864;4.406;2023-03-11T10:59:24;1.73;;;0.82;;
25731;SDS011;13585;50.864;4.406;2023-03-11T11:01:53;1.55;;;0.90;;
25731;SDS011;13585;50.864;4.406;2023-03-11T11:04:35;2.95;;;1.08;;
25731;SDS011;13585;50.864;4.406;2023-03-11T11:07:19;3.38;;;0.70;;
25731;SDS011;13585;50.864;4.406;2023-03-11T11:10:13;2.38;;;0.90;;
25731;SDS011;13585;50.864;4.406;2023-03-11T11:15:31;2.08;;;1.10;;
25731;SDS011;13585;50.864;4.406;2023-03-11T11:17:58;4.22;;;1.10;;
25731;SDS011;13585;50.864;4.406;2023-03-11T11:21:00;5.13;;;1.65;;
25731;SDS011;13585;50.864;4.406;2023-03-11T11:23:28;26.63;;;6.03;;
25731;SDS011;13585;50.864;4.406;2023-03-11T11:26:19;30.88;;;8.90;;
25731;SDS011;13585;50.864;4.406;2023-03-11T11:31:34;27.25;;;7.32;;
25731;SDS011;13585;50.864;4.406;2023-03-11T11:34:26;18.70;;;6.70;;
25731;SDS011;13585;50.864;4.406;2023-03-11T11:36:53;23.60;;;8.07;;
25731;SDS011;13585;50.864;4.406;2023-03-11T11:39:21;14.43;;;6.05;;
25731;SDS011;13585;50.864;4.406;2023-03-11T11:41:49;16.95;;;5.15;;
25731;SDS011;13585;50.864;4.406;2023-03-11T11:44:16;12.60;;;4.30;;
25731;SDS011;13585;50.864;4.406;2023-03-11T11:46:46;11.65;;;4.22;;
25731;SDS011;13585;50.864;4.406;2023-03-11T11:49:23;9.70;;;3.67;;
25731;SDS011;13585;50.864;4.406;2023-03-11T11:54:45;9.10;;;3.35;;
25731;SDS011;13585;50.864;4.406;2023-03-11T11:57:17;8.43;;;3.10;;
25731;SDS011;13585;50.864;4.406;2023-03-11T11:59:44;7.45;;;3.00;;
25731;SDS011;13585;50.864;4.406;2023-03-11T12:07:36;7.00;;;2.88;;
25731;SDS011;13585;50.864;4.406;2023-03-11T12:15:47;8.18;;;2.85;;
25731;SDS011;13585;50.864;4.406;2023-03-11T12:18:20;6.80;;;2.90;;
25731;SDS011;13585;50.864;4.406;2023-03-11T12:20:54;6.35;;;2.80;;
25731;SDS011;13585;50.864;4.406;2023-03-11T12:26:20;7.80;;;2.85;;
25731;SDS011;13585;50.864;4.406;2023-03-11T12:31:22;6.75;;;2.58;;
25731;SDS011;13585;50.864;4.406;2023-03-11T12:33:55;6.85;;;2.63;;
25731;SDS011;13585;50.864;4.406;2023-03-11T12:36:33;6.68;;;2.30;;
25731;SDS011;13585;50.864;4.406;2023-03-11T12:39:02;5.25;;;2.30;;
25731;SDS011;13585;50.864;4.406;2023-03-11T12:41:38;9.77;;;2.63;;
25731;SDS011;13585;50.864;4.406;2023-03-11T12:44:28;7.85;;;2.13;;
25731;SDS011;13585;50.864;4.406;2023-03-11T12:49:25;6.07;;;1.85;;
25731;SDS011;13585;50.864;4.406;2023-03-11T13:08:31;7.60;;;2.10;;
25731;SDS011;13585;50.864;4.406;2023-03-11T13:14:30;4.40;;;1.92;;
25731;SDS011;13585;50.864;4.406;2023-03-11T13:16:53;4.65;;;1.70;;
25731;SDS011;13585;50.864;4.406;2023-03-11T13:21:55;9.80;;;3.22;;
25731;SDS011;13585;50.864;4.406;2023-03-11T13:43:02;4.68;;;1.73;;
25731;SDS011;13585;50.864;4.406;2023-03-11T13:45:40;5.18;;;2.00;;
25731;SDS011;13585;50.864;4.406;2023-03-11T13:48:27;4.38;;;1.98;;
25731;SDS011;13585;50.864;4.406;2023-03-11T13:56:30;5.53;;;1.67;;
25731;SDS011;13585;50.864;4.406;2023-03-11T13:59:17;5.45;;;1.92;;
25731;SDS011;13585;50.864;4.406;2023-03-11T14:01:50;3.42;;;1.60;;
25731;SDS011;13585;50.864;4.406;2023-03-11T14:04:38;4.63;;;1.55;;
25731;SDS011;13585;50.864;4.406;2023-03-11T14:07:12;3.67;;;1.73;;
25731;SDS011;13585;50.864;4.406;2023-03-11T14:12:09;3.15;;;1.70;;
25731;SDS011;13585;50.864;4.406;2023-03-11T14:17:41;4.68;;;1.52;;
25731;SDS011;13585;50.864;4.406;2023-03-11T14:22:44;4.20;;;1.58;;
25731;SDS011;13585;50.864;4.406;2023-03-11T14:25:24;4.13;;;1.40;;
25731;SDS011;13585;50.864;4.406;2023-03-11T14:27:55;4.75;;;1.75;;
25731;SDS011;13585;50.864;4.406;2023-03-11T14:30:25;4.47;;;1.60;;
25731;SDS011;13585;50.864;4.406;2023-03-11T14:33:01;4.43;;;1.40;;
25731;SDS011;13585;50.864;4.406;2023-03-11T14:35:29;6.00;;;1.67;;
25731;SDS011;13585;50.864;4.406;2023-03-11T14:37:55;3.38;;;1.60;;
25731;SDS011;13585;50.864;4.406;2023-03-11T14:42:59;4.75;;;1.55;;
25731;SDS011;13585;50.864;4.406;2023-03-11T14:45:29;5.18;;;1.55;;
25731;SDS011;13585;50.864;4.406;2023-03-11T14:47:59;4.95;;;1.80;;
25731;SDS011;13585;50.864;4.406;2023-03-11T14:50:32;3.95;;;1.80;;
25731;SDS011;13585;50.864;4.406;2023-03-11T14:55:54;2.15;;;1.20;;
25731;SDS011;13585;50.864;4.406;2023-03-11T14:58:30;10.20;;;1.80;;
25731;SDS011;13585;50.864;4.406;2023-03-11T15:01:02;5.07;;;1.27;;
25731;SDS011;13585;50.864;4.406;2023-03-11T15:03:55;3.72;;;1.20;;
25731;SDS011;13585;50.864;4.406;2023-03-11T15:06:27;3.13;;;1.10;;
25731;SDS011;13585;50.864;4.406;2023-03-11T15:08:55;6.22;;;1.33;;
25731;SDS011;13585;50.864;4.406;2023-03-11T15:11:22;6.55;;;1.80;;
25731;SDS011;13585;50.864;4.406;2023-03-11T15:13:49;4.00;;;1.50;;
25731;SDS011;13585;50.864;4.406;2023-03-11T15:16:33;3.92;;;1.17;;
25731;SDS011;13585;50.864;4.406;2023-03-11T15:19:21;2.75;;;1.55;;
25731;SDS011;13585;50.864;4.406;2023-03-11T15:21:52;3.58;;;1.25;;
25731;SDS011;13585;50.864;4.406;2023-03-11T15:24:20;3.80;;;1.60;;
25731;SDS011;13585;50.864;4.406;2023-03-11T15:26:52;5.70;;;1.38;;
25731;SDS011;13585;50.864;4.406;2023-03-11T15:29:23;3.22;;;1.35;;
25731;SDS011;13585;50.864;4.406;2023-03-11T15:31:50;3.25;;;1.50;;
25731;SDS011;13585;50.864;4.406;2023-03-11T15:41:55;3.38;;;1.40;;
25731;SDS011;13585;50.864;4.406;2023-03-11T15:44:53;8.35;;;1.27;;
25731;SDS011;13585;50.864;4.406;2023-03-11T15:47:32;4.13;;;1.38;;
25731;SDS011;13585;50.864;4.406;2023-03-11T15:50:01;3.42;;;1.45;;
25731;SDS011;13585;50.864;4.406;2023-03-11T15:52:37;2.85;;;1.30;;
25731;SDS011;13585;50.864;4.406;2023-03-11T15:55:02;3.17;;;1.20;;
25731;SDS011;13585;50.864;4.406;2023-03-11T15:57:29;2.92;;;1.10;;
25731;SDS011;13585;50.864;4.406;2023-03-11T15:59:55;2.80;;;1.27;;
25731;SDS011;13585;50.864;4.406;2023-03-11T16:02:25;6.57;;;2.00;;
25731;SDS011;13585;50.864;4.406;2023-03-11T16:04:52;4.68;;;1.50;;
25731;SDS011;13585;50.864;4.406;2023-03-11T16:07:18;3.05;;;1.33;;
25731;SDS011;13585;50.864;4.406;2023-03-11T16:09:44;2.60;;;1.30;;
25731;SDS011;13585;50.864;4.406;2023-03-11T16:12:20;3.10;;;1.25;;
25731;SDS011;13585;50.864;4.406;2023-03-11T16:14:47;4.20;;;1.60;;
25731;SDS011;13585;50.864;4.406;2023-03-11T16:17:13;2.03;;;1.27;;
25731;SDS011;13585;50.864;4.406;2023-03-11T16:19:42;3.58;;;1.30;;
25731;SDS011;13585;50.864;4.406;2023-03-11T16:22:19;3.85;;;1.00;;
25731;SDS011;13585;50.864;4.406;2023-03-11T16:24:49;2.80;;;1.40;;
25731;SDS011;13585;50.864;4.406;2023-03-11T16:27:17;2.30;;;1.33;;
25731;SDS011;13585;50.864;4.406;2023-03-11T16:29:43;4.68;;;1.20;;
25731;SDS011;13585;50.864;4.406;2023-03-11T16:32:09;4.25;;;1.30;;
25731;SDS011;13585;50.864;4.406;2023-03-11T16:34:36;3.08;;;1.50;;
25731;SDS011;13585;50.864;4.406;2023-03-11T16:37:02;2.72;;;1.30;;
25731;SDS011;13585;50.864;4.406;2023-03-11T16:39:31;2.83;;;1.33;;
25731;SDS011;13585;50.864;4.406;2023-03-11T16:41:58;3.42;;;1.40;;
25731;SDS011;13585;50.864;4.406;2023-03-11T16:44:24;2.97;;;1.10;;
25731;SDS011;13585;50.864;4.406;2023-03-11T16:46:50;3.40;;;1.30;;
25731;SDS011;13585;50.864;4.406;2023-03-11T16:49:17;4.75;;;1.50;;
25731;SDS011;13585;50.864;4.406;2023-03-11T16:51:42;4.78;;;1.40;;
25731;SDS011;13585;50.864;4.406;2023-03-11T16:54:08;2.35;;;1.40;;